createdAt,value
2018-08-31T00:01:38.441Z,10.73
2018-08-31T00:04:43.946Z,11.90
2018-08-31T00:07:29.249Z,9.40
2018-08-31T00:12:19.759Z,8.83
2018-08-31T00:14:48.723Z,11.00
2018-08-31T00:17:17.652Z,9.73
2018-08-31T00:19:46.309Z,9.43
2018-08-31T00:22:14.997Z,9.27
2018-08-31T00:24:59.482Z,8.40
2018-08-31T00:27:39.042Z,9.97
2018-08-31T00:30:18.633Z,9.03
2018-08-31T00:38:03.201Z,8.83
2018-08-31T00:41:11.746Z,8.90
2018-08-31T00:45:49.523Z,8.60
2018-08-31T00:48:18.097Z,8.87
2018-08-31T00:50:46.677Z,10.03
2018-08-31T00:53:15.361Z,8.47
2018-08-31T00:55:43.962Z,9.57
2018-08-31T00:58:12.570Z,9.67
2018-08-31T01:00:41.412Z,8.60
2018-08-31T01:03:10.117Z,7.87
2018-08-31T01:05:38.887Z,7.73
2018-08-31T01:08:07.896Z,9.70
2018-08-31T01:10:36.920Z,9.10
2018-08-31T01:13:05.557Z,8.97
2018-08-31T01:15:34.141Z,11.83
2018-08-31T01:18:02.804Z,10.30
2018-08-31T01:20:31.432Z,9.03
2018-08-31T01:23:00.046Z,9.03
2018-08-31T01:25:28.728Z,12.27
2018-08-31T01:27:57.539Z,14.93
2018-08-31T01:30:26.203Z,12.00
2018-08-31T01:32:54.966Z,9.93
2018-08-31T01:35:23.594Z,12.40
2018-08-31T01:37:52.183Z,9.53
2018-08-31T01:40:20.834Z,10.30
2018-08-31T01:42:49.424Z,9.93
2018-08-31T01:45:18.035Z,9.73
2018-08-31T01:47:46.601Z,9.60
2018-08-31T01:50:15.234Z,9.63
2018-08-31T01:52:43.895Z,12.07
2018-08-31T01:55:12.474Z,11.47
2018-08-31T01:57:41.037Z,10.97
2018-08-31T02:00:09.976Z,10.47
2018-08-31T02:02:38.553Z,10.00
2018-08-31T02:05:07.310Z,11.67
2018-08-31T02:07:35.930Z,10.63
2018-08-31T02:10:05.359Z,12.60
2018-08-31T02:12:34.022Z,14.17
2018-08-31T02:15:02.665Z,10.30
2018-08-31T02:17:31.335Z,13.40
2018-08-31T02:19:59.957Z,11.37
2018-08-31T02:22:28.625Z,17.30
2018-08-31T02:24:57.313Z,12.23
2018-08-31T02:27:26.006Z,17.30
2018-08-31T02:29:54.618Z,12.70
2018-08-31T02:32:23.251Z,12.93
2018-08-31T02:34:51.923Z,14.67
2018-08-31T02:37:20.612Z,10.80
2018-08-31T02:39:49.281Z,13.97
2018-08-31T02:42:18.016Z,11.33
2018-08-31T02:44:52.049Z,14.67
2018-08-31T02:47:20.610Z,12.57
2018-08-31T02:49:49.352Z,11.60
2018-08-31T02:52:17.914Z,15.33
2018-08-31T02:54:46.958Z,12.17
2018-08-31T02:57:15.555Z,10.63
2018-08-31T02:59:44.141Z,11.50
2018-08-31T03:02:12.721Z,17.40
2018-08-31T03:04:41.389Z,12.40
2018-08-31T03:07:10.014Z,12.50
2018-08-31T03:09:38.661Z,13.53
2018-08-31T03:12:07.275Z,11.97
2018-08-31T03:14:35.864Z,11.50
2018-08-31T03:17:04.510Z,14.27
2018-08-31T03:19:33.197Z,11.50
2018-08-31T03:22:01.801Z,11.50
2018-08-31T03:24:31.126Z,12.17
2018-08-31T03:26:59.701Z,12.17
2018-08-31T03:29:28.317Z,13.23
2018-08-31T03:31:56.994Z,11.40
2018-08-31T03:34:25.599Z,12.43
2018-08-31T03:36:54.256Z,13.30
2018-08-31T03:39:23.389Z,11.60
2018-08-31T03:41:52.950Z,11.67
2018-08-31T03:44:21.637Z,12.73
2018-08-31T03:46:50.337Z,10.80
2018-08-31T03:49:19.025Z,12.70
2018-08-31T03:51:47.690Z,13.07
2018-08-31T03:54:16.369Z,13.10
2018-08-31T03:56:45.010Z,11.33
2018-08-31T03:59:13.621Z,10.30
2018-08-31T04:01:42.320Z,11.13
2018-08-31T04:04:10.972Z,11.93
2018-08-31T04:06:39.565Z,19.43
2018-08-31T04:09:08.855Z,9.07
2018-08-31T04:11:37.433Z,13.47
2018-08-31T04:14:06.286Z,11.23
2018-08-31T04:16:34.878Z,14.37
2018-08-31T04:19:07.585Z,13.87
2018-08-31T04:21:36.221Z,10.33
2018-08-31T04:24:04.809Z,14.37
2018-08-31T04:26:33.470Z,10.53
2018-08-31T04:29:02.060Z,10.57
2018-08-31T04:31:30.710Z,10.40
2018-08-31T04:33:59.471Z,10.23
2018-08-31T04:36:28.079Z,11.40
2018-08-31T04:38:56.668Z,10.67
2018-08-31T04:41:25.319Z,10.83
2018-08-31T04:43:54.071Z,11.00
2018-08-31T04:46:23.277Z,16.93
2018-08-31T04:48:51.906Z,10.40
2018-08-31T04:51:20.510Z,9.50
2018-08-31T04:53:49.067Z,15.07
2018-08-31T04:56:17.647Z,10.50
2018-08-31T04:58:46.269Z,10.50
2018-08-31T05:01:16.096Z,10.73
2018-08-31T05:03:44.727Z,11.63
2018-08-31T05:06:13.329Z,10.40
2018-08-31T05:08:41.921Z,10.33
2018-08-31T05:11:10.636Z,11.00
2018-08-31T05:13:39.390Z,12.27
2018-08-31T05:16:08.917Z,12.20
2018-08-31T05:18:37.523Z,10.63
2018-08-31T05:21:06.182Z,13.30
2018-08-31T05:23:34.806Z,10.73
2018-08-31T05:26:03.498Z,9.50
2018-08-31T05:28:32.282Z,10.53
2018-08-31T05:31:03.432Z,11.30
2018-08-31T05:33:32.264Z,10.60
2018-08-31T05:36:00.901Z,14.73
2018-08-31T05:38:31.900Z,9.47
2018-08-31T05:41:00.573Z,10.30
2018-08-31T05:43:29.154Z,13.50
2018-08-31T05:45:57.833Z,10.70
2018-08-31T05:48:26.445Z,12.10
2018-08-31T05:50:55.085Z,10.57
2018-08-31T05:53:23.748Z,9.50
2018-08-31T05:55:52.397Z,10.77
2018-08-31T05:58:21.076Z,12.20
2018-08-31T06:00:49.670Z,9.13
2018-08-31T06:03:18.272Z,9.00
2018-08-31T06:05:47.049Z,12.47
2018-08-31T06:08:15.701Z,8.77
2018-08-31T06:10:44.338Z,9.40
2018-08-31T06:13:13.238Z,9.53
2018-08-31T06:15:41.897Z,12.83
2018-08-31T06:18:10.746Z,9.40
2018-08-31T06:20:39.455Z,13.93
2018-08-31T06:23:08.156Z,9.50
2018-08-31T06:25:36.852Z,9.40
2018-08-31T06:28:05.632Z,15.83
2018-08-31T06:30:34.512Z,8.47
2018-08-31T06:33:03.696Z,10.23
2018-08-31T06:35:32.390Z,8.40
2018-08-31T06:38:01.082Z,8.83
2018-08-31T06:40:29.776Z,9.80
2018-08-31T06:42:58.478Z,14.10
2018-08-31T06:45:27.206Z,10.50
2018-08-31T06:47:55.878Z,8.60
2018-08-31T06:50:24.489Z,8.93
2018-08-31T06:52:53.143Z,8.40
2018-08-31T06:55:21.858Z,12.50
2018-08-31T06:57:50.617Z,10.77
2018-08-31T07:00:19.318Z,10.70
2018-08-31T07:02:47.949Z,10.00
2018-08-31T07:05:16.605Z,9.27
2018-08-31T07:07:45.373Z,8.57
2018-08-31T07:10:14.118Z,11.13
2018-08-31T07:12:42.865Z,11.20
2018-08-31T07:15:11.694Z,11.07
2018-08-31T07:17:41.031Z,10.30
2018-08-31T07:20:09.723Z,10.57
2018-08-31T07:22:38.464Z,13.80
2018-08-31T07:25:07.232Z,11.00
2018-08-31T07:27:35.988Z,12.50
2018-08-31T07:30:04.898Z,11.33
2018-08-31T07:32:34.480Z,11.77
2018-08-31T07:35:03.148Z,9.50
2018-08-31T07:37:31.788Z,9.77
2018-08-31T07:40:00.441Z,10.80
2018-08-31T07:42:29.066Z,11.80
2018-08-31T07:44:57.651Z,14.53
2018-08-31T07:47:26.242Z,11.53
2018-08-31T07:49:54.882Z,18.90
2018-08-31T07:52:23.531Z,11.90
2018-08-31T07:54:52.285Z,12.73
2018-08-31T07:57:20.906Z,13.13
2018-08-31T07:59:49.576Z,18.33
2018-08-31T08:02:18.267Z,11.03
2018-08-31T08:04:46.945Z,11.30
2018-08-31T08:07:15.590Z,9.97
2018-08-31T08:09:44.317Z,11.70
2018-08-31T08:12:12.996Z,14.80
2018-08-31T08:14:41.667Z,10.47
2018-08-31T08:17:10.261Z,13.53
2018-08-31T08:19:39.011Z,12.13
2018-08-31T08:22:14.459Z,10.33
2018-08-31T08:24:43.181Z,11.20
2018-08-31T08:27:11.822Z,11.97
2018-08-31T08:29:40.449Z,10.53
2018-08-31T08:32:09.101Z,10.47
2018-08-31T08:34:37.697Z,12.80
2018-08-31T08:37:06.371Z,12.27
2018-08-31T08:39:35.029Z,13.50
2018-08-31T08:42:03.703Z,14.67
2018-08-31T08:44:32.391Z,10.90
2018-08-31T08:47:01.094Z,11.57
2018-08-31T08:49:29.911Z,9.80
2018-08-31T08:51:58.711Z,10.80
2018-08-31T08:54:27.374Z,9.53
2018-08-31T08:56:56.226Z,11.53
2018-08-31T08:59:24.939Z,11.00
2018-08-31T09:01:53.556Z,10.90
2018-08-31T09:04:22.272Z,10.63
2018-08-31T09:06:50.913Z,9.53
2018-08-31T09:09:19.571Z,11.57
2018-08-31T09:11:54.483Z,12.47
2018-08-31T09:14:23.167Z,12.70
2018-08-31T09:16:51.811Z,11.70
2018-08-31T09:19:20.776Z,10.33
2018-08-31T09:21:49.834Z,11.83
2018-08-31T09:24:18.733Z,13.30
2018-08-31T09:26:47.725Z,11.90
2018-08-31T09:29:18.510Z,10.53
2018-08-31T09:31:47.369Z,12.43
2018-08-31T09:34:16.371Z,12.30
2018-08-31T09:36:45.235Z,11.63
2018-08-31T09:39:13.907Z,10.83
2018-08-31T09:41:43.281Z,9.63
2018-08-31T09:44:11.973Z,11.10
2018-08-31T09:46:41.336Z,10.50
2018-08-31T09:49:11.179Z,15.00
2018-08-31T09:51:40.011Z,11.57
2018-08-31T09:54:08.902Z,14.10
2018-08-31T09:56:37.727Z,10.93
2018-08-31T09:59:06.728Z,11.43
2018-08-31T10:01:37.899Z,11.07
2018-08-31T10:04:07.342Z,12.17
2018-08-31T10:06:36.300Z,12.80
2018-08-31T10:09:06.883Z,14.20
2018-08-31T10:11:35.696Z,11.80
2018-08-31T10:14:04.806Z,10.90
2018-08-31T10:16:38.906Z,10.20
2018-08-31T10:19:07.660Z,10.63
2018-08-31T10:21:36.363Z,12.10
2018-08-31T10:24:05.057Z,11.30
2018-08-31T10:26:33.735Z,10.83
2018-08-31T10:29:02.412Z,9.13
2018-08-31T10:31:36.079Z,9.97
2018-08-31T10:34:04.830Z,8.73
2018-08-31T10:36:33.533Z,10.90
2018-08-31T10:39:02.211Z,9.63
2018-08-31T10:41:30.931Z,9.10
2018-08-31T10:43:59.642Z,9.90
2018-08-31T10:46:28.363Z,9.07
2018-08-31T10:48:57.037Z,9.17
2018-08-31T10:51:25.779Z,10.00
2018-08-31T10:53:54.568Z,10.77
2018-08-31T10:56:23.334Z,9.43
2018-08-31T10:58:52.142Z,11.53
2018-08-31T11:01:20.850Z,11.27
2018-08-31T11:03:49.579Z,9.83
2018-08-31T11:06:18.279Z,9.20
2018-08-31T11:08:47.111Z,9.43
2018-08-31T11:11:15.815Z,9.30
2018-08-31T11:13:44.534Z,11.60
2018-08-31T11:16:13.269Z,12.47
2018-08-31T11:18:42.039Z,11.07
2018-08-31T11:21:13.261Z,12.53
2018-08-31T11:23:42.475Z,11.20
2018-08-31T11:26:11.220Z,10.60
2018-08-31T11:28:39.950Z,10.90
2018-08-31T11:31:08.683Z,10.17
2018-08-31T11:33:37.867Z,11.37
2018-08-31T11:36:06.721Z,11.87
2018-08-31T11:38:35.467Z,9.93
2018-08-31T11:41:04.165Z,12.23
2018-08-31T11:43:32.923Z,10.70
2018-08-31T11:46:01.665Z,11.67
2018-08-31T11:48:30.471Z,10.97
2018-08-31T11:50:59.306Z,9.80
2018-08-31T11:53:28.087Z,9.90
2018-08-31T11:55:56.830Z,10.20
2018-08-31T11:58:25.590Z,11.77
2018-08-31T12:00:54.746Z,10.10
2018-08-31T12:03:23.394Z,16.50
2018-08-31T12:05:52.059Z,11.87
2018-08-31T12:08:20.693Z,10.60
2018-08-31T12:10:49.331Z,12.10
2018-08-31T12:13:17.978Z,12.40
2018-08-31T12:15:46.673Z,12.40
2018-08-31T12:18:15.345Z,10.10
2018-08-31T12:20:44.020Z,9.60
2018-08-31T12:23:12.679Z,11.00
2018-08-31T12:25:41.327Z,11.33
2018-08-31T12:28:09.988Z,9.10
2018-08-31T12:30:38.666Z,10.23
2018-08-31T12:33:07.582Z,11.50
2018-08-31T12:35:36.238Z,10.30
2018-08-31T12:38:04.930Z,9.47
2018-08-31T12:40:33.616Z,9.40
2018-08-31T12:43:02.353Z,10.17
2018-08-31T12:45:31.066Z,10.53
2018-08-31T12:47:59.717Z,12.77
2018-08-31T12:50:28.421Z,9.97
2018-08-31T12:52:58.128Z,9.07
2018-08-31T12:55:26.835Z,9.30
2018-08-31T12:57:55.490Z,9.93
2018-08-31T13:00:24.221Z,10.13
2018-08-31T13:02:53.216Z,9.90
2018-08-31T13:05:21.918Z,11.23
2018-08-31T13:07:50.547Z,12.13
2018-08-31T13:10:19.331Z,11.23
2018-08-31T13:12:48.081Z,13.30
2018-08-31T13:15:16.794Z,10.20
2018-08-31T13:17:45.534Z,11.87
2018-08-31T13:20:14.185Z,9.63
2018-08-31T13:22:42.943Z,10.70
2018-08-31T13:25:11.653Z,9.70
2018-08-31T13:27:40.313Z,13.13
2018-08-31T13:30:09.097Z,11.40
2018-08-31T13:32:37.785Z,11.20
2018-08-31T13:35:07.171Z,9.83
2018-08-31T13:37:35.859Z,10.23
2018-08-31T13:40:04.558Z,9.23
2018-08-31T13:42:33.245Z,10.30
2018-08-31T13:45:01.913Z,9.30
2018-08-31T13:47:31.037Z,15.83
2018-08-31T13:49:59.854Z,10.97
2018-08-31T13:52:28.593Z,10.93
2018-08-31T13:54:57.203Z,9.93
2018-08-31T13:57:25.961Z,12.07
2018-08-31T13:59:54.583Z,11.17
2018-08-31T14:02:23.263Z,10.30
2018-08-31T14:04:52.090Z,11.90
2018-08-31T14:07:20.710Z,10.80
2018-08-31T14:09:49.498Z,9.50
2018-08-31T14:12:18.199Z,9.73
2018-08-31T14:14:46.903Z,11.37
2018-08-31T14:17:15.967Z,11.07
2018-08-31T14:19:45.918Z,10.27
2018-08-31T14:22:14.785Z,9.60
2018-08-31T14:24:43.466Z,10.80
2018-08-31T14:27:12.160Z,10.57
2018-08-31T14:29:40.979Z,10.67
2018-08-31T14:32:09.611Z,10.77
2018-08-31T14:34:38.311Z,10.43
2018-08-31T14:37:07.136Z,9.47
2018-08-31T14:39:35.890Z,10.53
2018-08-31T14:42:04.558Z,10.33
2018-08-31T14:44:33.239Z,11.10
2018-08-31T14:47:01.982Z,11.23
2018-08-31T14:49:31.013Z,11.60
2018-08-31T14:51:59.678Z,12.70
2018-08-31T14:54:28.310Z,10.57
2018-08-31T14:56:56.990Z,11.67
2018-08-31T14:59:25.711Z,11.33
2018-08-31T15:01:54.489Z,13.33
2018-08-31T15:04:23.531Z,12.03
2018-08-31T15:06:52.241Z,10.80
2018-08-31T15:09:20.922Z,12.17
2018-08-31T15:11:49.645Z,10.40
2018-08-31T15:14:18.387Z,12.10
2018-08-31T15:16:47.110Z,11.10
2018-08-31T15:19:15.894Z,12.00
2018-08-31T15:21:44.566Z,11.30
2018-08-31T15:24:13.326Z,14.77
2018-08-31T15:26:42.010Z,11.00
2018-08-31T15:29:10.754Z,11.13
2018-08-31T15:31:39.408Z,10.80
2018-08-31T15:34:08.102Z,15.37
2018-08-31T15:36:36.809Z,12.73
2018-08-31T15:39:07.815Z,11.80
2018-08-31T15:41:36.569Z,13.13
2018-08-31T15:44:05.319Z,12.67
2018-08-31T15:46:33.980Z,12.00
2018-08-31T15:49:02.666Z,11.20
2018-08-31T15:51:31.401Z,11.07
2018-08-31T15:54:00.082Z,12.40
2018-08-31T15:56:28.724Z,14.03
2018-08-31T15:58:57.381Z,11.03
2018-08-31T16:01:26.009Z,10.07
2018-08-31T16:03:54.702Z,14.40
2018-08-31T16:06:23.378Z,12.37
2018-08-31T16:08:52.046Z,11.07
2018-08-31T16:11:20.726Z,12.93
2018-08-31T16:13:49.476Z,10.47
2018-08-31T16:16:18.450Z,10.63
2018-08-31T16:18:47.224Z,8.67
2018-08-31T16:21:15.898Z,9.27
2018-08-31T16:23:44.619Z,9.13
2018-08-31T16:26:13.253Z,8.97
2018-08-31T16:28:41.884Z,13.03
2018-08-31T16:31:10.719Z,11.90
2018-08-31T16:33:39.309Z,8.93
2018-08-31T16:36:08.529Z,10.50
2018-08-31T16:38:37.177Z,9.90
2018-08-31T16:41:05.798Z,12.53
2018-08-31T16:43:34.448Z,10.30
2018-08-31T16:46:03.205Z,11.73
2018-08-31T16:48:31.834Z,10.17
2018-08-31T16:51:00.477Z,11.87
2018-08-31T16:53:29.225Z,11.80
2018-08-31T16:55:57.884Z,10.63
2018-08-31T16:58:26.670Z,11.03
2018-08-31T17:00:55.246Z,10.60
2018-08-31T17:03:23.889Z,9.83
2018-08-31T17:05:52.502Z,10.70
2018-08-31T17:08:21.122Z,11.20
2018-08-31T17:10:55.321Z,12.77
2018-08-31T17:13:23.978Z,11.10
2018-08-31T17:15:52.590Z,11.27
2018-08-31T17:18:21.256Z,12.20
2018-08-31T17:20:49.852Z,14.80
2018-08-31T17:23:18.495Z,17.10
2018-08-31T17:25:47.128Z,14.60
2018-08-31T17:28:20.998Z,12.60
2018-08-31T17:30:53.767Z,12.10
2018-08-31T17:33:27.553Z,12.20
2018-08-31T17:36:01.447Z,14.07
2018-08-31T17:38:30.122Z,12.07
2018-08-31T17:40:58.756Z,11.47
2018-08-31T17:43:27.398Z,15.30
2018-08-31T17:45:57.004Z,13.93
2018-08-31T17:48:26.038Z,15.53
2018-08-31T17:50:55.031Z,19.87
2018-08-31T17:53:23.625Z,16.13
2018-08-31T17:55:52.345Z,12.60
2018-08-31T17:58:20.986Z,13.40
2018-08-31T18:00:49.694Z,14.67
2018-08-31T18:03:18.286Z,11.60
2018-08-31T18:05:46.963Z,14.83
2018-08-31T18:08:15.570Z,14.53
2018-08-31T18:10:44.278Z,14.53
2018-08-31T18:13:12.901Z,13.97
2018-08-31T18:15:41.578Z,12.90
2018-08-31T18:18:10.241Z,13.77
2018-08-31T18:20:38.966Z,15.90
2018-08-31T18:23:07.606Z,17.37
2018-08-31T18:25:36.282Z,16.05
2018-08-31T18:28:04.919Z,16.87
2018-08-31T18:30:33.538Z,17.07
2018-08-31T18:33:02.226Z,18.90
2018-08-31T18:35:30.875Z,17.30
2018-08-31T18:37:59.509Z,16.37
2018-08-31T18:40:28.206Z,14.63
2018-08-31T18:42:57.383Z,21.07
2018-08-31T18:45:26.441Z,15.43
2018-08-31T18:47:55.086Z,22.27
2018-08-31T18:50:23.747Z,15.83
2018-08-31T18:52:52.369Z,18.50
2018-08-31T18:55:21.010Z,15.97
2018-08-31T18:57:49.714Z,20.57
2018-08-31T19:00:18.394Z,16.43
2018-08-31T19:02:47.387Z,18.83
2018-08-31T19:05:16.109Z,20.27
2018-08-31T19:07:44.797Z,17.23
2018-08-31T19:10:13.450Z,18.77
2018-08-31T19:12:42.118Z,18.63
2018-08-31T19:15:10.764Z,18.77
2018-08-31T19:17:39.506Z,23.57
2018-08-31T19:20:08.204Z,22.27
2018-08-31T19:22:36.991Z,21.83
2018-08-31T19:25:05.718Z,19.23
2018-08-31T19:27:34.319Z,20.50
2018-08-31T19:30:02.951Z,16.40
2018-08-31T19:32:31.611Z,17.40
2018-08-31T19:35:00.317Z,19.20
2018-08-31T19:37:28.994Z,17.47
2018-08-31T19:39:57.707Z,17.30
2018-08-31T19:42:26.461Z,18.60
2018-08-31T19:44:55.233Z,16.20
2018-08-31T19:47:24.007Z,18.07
2018-08-31T19:49:53.079Z,19.30
2018-08-31T19:52:21.763Z,16.23
2018-08-31T19:54:50.390Z,17.93
2018-08-31T19:57:19.149Z,20.43
2018-08-31T19:59:47.813Z,19.60
2018-08-31T20:02:16.510Z,30.90
2018-08-31T20:04:45.202Z,29.80
2018-08-31T20:07:14.227Z,19.00
2018-08-31T20:09:43.020Z,24.10
2018-08-31T20:12:11.755Z,33.03
2018-08-31T20:14:40.419Z,18.73
2018-08-31T20:17:09.084Z,20.77
2018-08-31T20:19:37.779Z,16.27
2018-08-31T20:22:09.486Z,16.17
2018-08-31T20:24:38.154Z,20.00
2018-08-31T20:27:06.867Z,15.80
2018-08-31T20:29:35.503Z,23.23
2018-08-31T20:32:04.294Z,18.73
2018-08-31T20:34:32.961Z,24.90
2018-08-31T20:37:01.580Z,27.20
2018-08-31T20:39:30.236Z,20.33
2018-08-31T20:41:58.861Z,21.70
2018-08-31T20:44:27.646Z,22.00
2018-08-31T20:46:56.284Z,23.23
2018-08-31T20:49:24.931Z,22.30
2018-08-31T20:51:53.578Z,28.47
2018-08-31T20:54:22.359Z,25.03
2018-08-31T20:56:51.042Z,20.30
2018-08-31T20:59:19.664Z,26.03
2018-08-31T21:01:48.323Z,23.83
2018-08-31T21:04:17.007Z,21.43
2018-08-31T21:06:45.750Z,24.53
2018-08-31T21:09:14.421Z,20.60
2018-08-31T21:11:43.086Z,22.03
2018-08-31T21:14:11.737Z,21.27
2018-08-31T21:16:40.343Z,22.70
2018-08-31T21:19:09.005Z,22.43
2018-08-31T21:21:37.948Z,24.67
2018-08-31T21:24:06.622Z,24.40
2018-08-31T21:26:35.274Z,22.00
2018-08-31T21:29:03.950Z,19.70
2018-08-31T21:31:32.639Z,24.17
2018-08-31T21:34:01.326Z,24.60
2018-08-31T21:36:30.013Z,28.57
2018-08-31T21:38:58.711Z,22.80
2018-08-31T21:41:27.395Z,19.27
2018-08-31T21:43:56.120Z,21.90
2018-08-31T21:46:24.763Z,26.33
2018-08-31T21:48:53.465Z,20.00
2018-08-31T21:51:22.150Z,22.33
2018-08-31T21:53:50.832Z,26.47
2018-08-31T21:56:19.487Z,17.77
2018-08-31T21:58:48.200Z,24.63
2018-08-31T22:01:22.214Z,20.27
2018-08-31T22:03:50.966Z,20.77
2018-08-31T22:06:19.607Z,17.30
2018-08-31T22:08:48.263Z,23.60
2018-08-31T22:11:16.936Z,29.33
2018-08-31T22:13:45.638Z,21.20
2018-08-31T22:16:14.312Z,23.07
2018-08-31T22:18:43.001Z,17.80
2018-08-31T22:21:11.727Z,18.03
2018-08-31T22:23:40.354Z,20.50
2018-08-31T22:26:09.083Z,18.80
2018-08-31T22:28:37.739Z,20.30
2018-08-31T22:31:06.456Z,17.87
2018-08-31T22:33:35.123Z,21.13
2018-08-31T22:36:03.919Z,16.97
2018-08-31T22:38:32.646Z,16.30
2018-08-31T22:41:01.290Z,17.33
2018-08-31T22:43:35.074Z,20.83
2018-08-31T22:46:03.756Z,13.77
2018-08-31T22:48:32.480Z,16.17
2018-08-31T22:51:01.105Z,17.37
2018-08-31T22:53:29.837Z,19.30
2018-08-31T22:55:58.499Z,18.27
2018-08-31T22:58:27.191Z,16.43
2018-08-31T23:00:55.921Z,18.73
2018-08-31T23:03:24.662Z,18.80
2018-08-31T23:05:54.626Z,19.40
2018-08-31T23:08:23.286Z,18.30
2018-08-31T23:10:51.987Z,20.07
2018-08-31T23:13:20.701Z,20.20
2018-08-31T23:15:49.266Z,17.00
2018-08-31T23:18:17.985Z,20.60
2018-08-31T23:20:46.742Z,19.00
2018-08-31T23:23:20.357Z,15.30
2018-08-31T23:25:49.080Z,18.57
2018-08-31T23:28:18.378Z,19.70
2018-08-31T23:30:47.165Z,18.93
2018-08-31T23:33:15.991Z,19.20
2018-08-31T23:35:44.843Z,18.80
2018-08-31T23:38:14.011Z,19.57
2018-08-31T23:40:42.739Z,22.00
2018-08-31T23:43:11.395Z,19.10
2018-08-31T23:45:40.012Z,19.27
2018-08-31T23:48:08.686Z,17.80
2018-08-31T23:50:37.266Z,24.10
2018-08-31T23:53:05.969Z,19.73
2018-08-31T23:55:34.648Z,16.03
2018-08-31T23:58:03.395Z,18.20
